Terminal Aerodrome Forecast
Issued by NWS

Home | Current Version | Previous Version | Graphics & Text | Print | Product List | Glossary On
Versions: 1 2 3 4 5 6 7 8 9 10 11 12
000
FTUS43 KMPX 311100 RRA
TAFRWF
TAF
KRWF 311143Z 3112/0112 VRB03KT P6SM SKC
     FM311500 31007KT P6SM SCT050
     FM010300 24003KT P6SM SKC=

USA.gov is the U.S. government's official web portal to all federal, state and local government web resources and services.